Messwerte Swift Current

Temperatur

Temperatur
°C
1573678800 15.00 15.00 1
1573682400 16.00 16.00 2
1573686000 17.00 17.00 2
1573689600 18.00 18.00 2
1573693200 19.00 19.00 2
1573696800 20.00 20.00 2
1573700400 21.00 21.00 1
1573704000 22.00 22.00 0
1573707600 23.00 23.00 0
1573711200 0.00 0.00 0
1573714800 1.00 1.00 1
1573718400 2.00 2.00 1
1573722000 3.00 3.00 0
1573725600 4.00 4.00 0
1573729200 5.00 5.00 0
1573732800 6.00 6.00 0
1573736400 7.00 7.00 0
1573740000 8.00 8.00 -1
1573743600 9.00 9.00
1573747200 10.00 10.00 1
1573750800 11.00 11.00 2
1573754400 12.00 12.00 3
1573758000 13.00 13.00
1573761600 14.00 14.00 4

Aktuellste Messwerte

Wettercharakter
Wetter: sonnig
Temperatur
4 °C
Feuchtigkeit
70 %
Wind
10 km/hWindrichtung: Südost
Luftdruck
1018 hPa
Messzeit: 14. November 2019, 14.00Datenquelle: METAR

Weitere Messstationen in der Nähe

Messstation Temperatur Entfernung
Lucky Lake -1 °C 81 km
Eastend 2 °C 134 km
Maple Creek 8 °C 135 km
Val Marie 1 °C 137 km
Rosetown East -1 °C 142 km
Leader 1 °C 145 km
Moose Jaw Cs 0 °C 150 km

Wind

Windrichtung Böen Mittelwind
° km/h km/h
1573678800 15.00 14.00 - 15.00 230° 15
1573682400 16.00 15.00 - 16.00 230° 15
1573686000 17.00 16.00 - 17.00 230° 20
1573689600 18.00 17.00 - 18.00 230° 20
1573693200 19.00 18.00 - 19.00 250° 20
1573696800 20.00 19.00 - 20.00 250° 25
1573700400 21.00 20.00 - 21.00 240° 25
1573704000 22.00 21.00 - 22.00 230° 20
1573707600 23.00 22.00 - 23.00 230° 20
1573711200 0.00 23.00 - 0.00 230° 20
1573714800 1.00 0.00 - 1.00 240° 25
1573718400 2.00 1.00 - 2.00 240° 30
1573722000 3.00 2.00 - 3.00 250° 25
1573725600 4.00 3.00 - 4.00 250° 25
1573729200 5.00 4.00 - 5.00 260° 25
1573732800 6.00 5.00 - 6.00 260° 20
1573736400 7.00 6.00 - 7.00 250° 20
1573740000 8.00 7.00 - 8.00 240° 20
1573743600 9.00 8.00 - 9.00
1573747200 10.00 9.00 - 10.00 270° 20
1573750800 11.00 10.00 - 11.00 290° 15
1573754400 12.00 11.00 - 12.00 330° 10
1573758000 13.00 12.00 - 13.00
1573761600 14.00 13.00 - 14.00 130° 10

Ihre Wetterstation

Fehlt Ihre Wetterstation auf unserem Portal?

Schreiben Sie an network@meteonews.ch

Klima

Wann ist es am wärmsten? Wann regnet es am wenigsten? Unsere Klimadaten geben Auskunft.